createdAt,value
2022-07-30T00:02:00.224Z,101617.88
2022-07-30T00:04:27.676Z,101627.53
2022-07-30T00:06:55.078Z,101619.94
2022-07-30T00:09:22.404Z,101621.81
2022-07-30T00:11:49.840Z,101621.50
2022-07-30T00:14:17.315Z,101617.94
2022-07-30T00:16:44.688Z,101622.22
2022-07-30T00:19:13.470Z,101608.97
2022-07-30T00:21:40.869Z,101611.91
2022-07-30T00:24:10.697Z,101609.22
2022-07-30T00:26:38.751Z,101608.41
2022-07-30T00:29:06.681Z,101612.75
2022-07-30T00:31:34.313Z,101611.66
2022-07-30T00:34:01.626Z,101607.34
2022-07-30T00:36:30.437Z,101601.44
2022-07-30T00:38:58.012Z,101602.81
2022-07-30T00:41:27.104Z,101601.50
2022-07-30T00:43:54.401Z,101594.25
2022-07-30T00:46:22.014Z,101601.50
2022-07-30T00:48:49.445Z,101597.19
2022-07-30T00:51:16.897Z,101595.56
2022-07-30T00:53:45.570Z,101594.16
2022-07-30T00:56:12.944Z,101585.78
2022-07-30T00:58:40.262Z,101590.03
2022-07-30T01:01:07.795Z,101585.16
2022-07-30T01:03:35.103Z,101585.38
2022-07-30T01:06:02.718Z,101579.44
2022-07-30T01:08:30.103Z,101585.31
2022-07-30T01:10:58.828Z,101580.75
2022-07-30T01:13:26.234Z,101581.78
2022-07-30T01:15:53.978Z,101573.72
2022-07-30T01:18:45.749Z,101573.16
2022-07-30T01:21:21.223Z,101567.69
2022-07-30T01:23:53.497Z,101562.31
2022-07-30T01:26:23.240Z,101558.56
2022-07-30T01:28:54.838Z,101561.81
2022-07-30T01:31:25.332Z,101554.28
2022-07-30T01:33:55.495Z,101554.06
2022-07-30T01:36:24.280Z,101545.16
2022-07-30T01:38:53.342Z,101554.00
2022-07-30T01:41:23.958Z,101555.31
2022-07-30T01:43:53.533Z,101553.16
2022-07-30T01:46:25.188Z,101548.84
2022-07-30T01:48:54.676Z,101548.53
2022-07-30T01:51:23.068Z,101543.91
2022-07-30T01:53:53.543Z,101544.94
2022-07-30T01:56:26.161Z,101539.56
2022-07-30T01:58:57.218Z,101537.41
2022-07-30T02:01:25.174Z,101531.81
2022-07-30T02:03:53.553Z,101540.13
2022-07-30T02:06:28.765Z,101538.16
2022-07-30T02:09:01.595Z,101536.22
2022-07-30T02:12:03.882Z,101531.00
2022-07-30T02:14:45.715Z,101533.06
2022-07-30T02:17:30.089Z,101530.03
2022-07-30T02:20:00.259Z,101533.25
2022-07-30T02:22:37.192Z,101540.75
2022-07-30T02:25:07.440Z,101535.38
2022-07-30T02:27:40.509Z,101538.06
2022-07-30T02:30:11.186Z,101529.38
2022-07-30T02:32:43.979Z,101536.03
2022-07-30T02:35:18.848Z,101535.69
2022-07-30T02:37:52.739Z,101531.88
2022-07-30T02:40:23.420Z,101532.91
2022-07-30T02:42:54.528Z,101532.34
2022-07-30T02:45:25.171Z,101532.84
2022-07-30T02:47:58.648Z,101538.88
2022-07-30T02:50:28.351Z,101535.88
2022-07-30T02:52:59.437Z,101532.06
2022-07-30T02:55:30.060Z,101532.53
2022-07-30T02:58:01.332Z,101538.41
2022-07-30T03:00:32.117Z,101540.53
2022-07-30T03:03:01.726Z,101540.78
2022-07-30T03:05:30.107Z,101542.53
2022-07-30T03:07:59.880Z,101538.19
2022-07-30T03:10:28.691Z,101540.88
2022-07-30T03:13:00.102Z,101532.59
2022-07-30T03:15:30.079Z,101537.72
2022-07-30T03:17:59.787Z,101541.44
2022-07-30T03:20:31.699Z,101536.88
2022-07-30T03:23:02.979Z,101543.91
2022-07-30T03:25:32.772Z,101544.72
2022-07-30T03:28:04.068Z,101543.09
2022-07-30T03:30:34.557Z,101534.44
2022-07-30T03:33:02.828Z,101538.19
2022-07-30T03:35:31.528Z,101534.09
2022-07-30T03:38:00.816Z,101546.16
2022-07-30T03:40:29.883Z,101541.28
2022-07-30T03:42:57.892Z,101547.16
2022-07-30T03:45:27.929Z,101543.06
2022-07-30T03:47:56.886Z,101546.00
2022-07-30T03:50:24.656Z,101542.25
2022-07-30T03:52:52.652Z,101547.97
2022-07-30T03:55:20.244Z,101552.84
2022-07-30T03:57:48.913Z,101538.69
2022-07-30T04:00:17.251Z,101539.84
2022-07-30T04:02:47.297Z,101541.44
2022-07-30T04:05:16.195Z,101536.66
2022-07-30T04:07:45.159Z,101542.66
2022-07-30T04:10:13.402Z,101542.38
2022-07-30T04:12:40.812Z,101554.53
2022-07-30T04:16:05.915Z,101546.22
2022-07-30T04:18:04.495Z,101554.53
2022-07-30T04:20:41.147Z,101552.91
2022-07-30T04:23:10.687Z,101556.66
2022-07-30T04:25:39.629Z,101558.28
2022-07-30T04:28:09.497Z,101559.91
2022-07-30T04:30:37.175Z,101563.19
2022-07-30T04:33:07.407Z,101562.13
2022-07-30T04:35:51.579Z,101565.41
2022-07-30T04:38:20.178Z,101566.78
2022-07-30T04:40:48.546Z,101561.72
2022-07-30T04:43:17.122Z,101561.22
2022-07-30T04:45:45.040Z,101562.88
2022-07-30T04:48:13.804Z,101562.38
2022-07-30T04:50:46.915Z,101579.69
2022-07-30T04:53:15.394Z,101573.78
2022-07-30T04:55:46.861Z,101574.13
2022-07-30T04:58:16.821Z,101583.31
2022-07-30T05:00:45.744Z,101575.34
2022-07-30T05:03:17.319Z,101575.09
2022-07-30T05:05:47.110Z,101575.69
2022-07-30T05:08:14.786Z,101578.38
2022-07-30T05:10:43.563Z,101576.72
2022-07-30T05:13:15.061Z,101576.72
2022-07-30T05:15:47.133Z,101575.41
2022-07-30T05:18:15.837Z,101576.25
2022-07-30T05:20:43.376Z,101582.44
2022-07-30T05:23:10.732Z,101585.69
2022-07-30T05:25:38.081Z,101590.28
2022-07-30T05:28:05.497Z,101587.31
2022-07-30T05:30:32.985Z,101591.41
2022-07-30T05:33:02.045Z,101589.88
2022-07-30T05:35:32.617Z,101591.56
2022-07-30T05:38:00.323Z,101600.56
2022-07-30T05:40:27.786Z,101596.66
2022-07-30T05:42:55.180Z,101598.34
2022-07-30T05:45:22.645Z,101599.22
2022-07-30T05:47:50.234Z,101595.97
2022-07-30T05:50:17.612Z,101598.59
2022-07-30T05:52:46.295Z,101601.44
2022-07-30T05:55:13.714Z,101603.47
2022-07-30T05:57:43.669Z,101599.06
2022-07-30T06:00:13.254Z,101613.03
2022-07-30T06:02:40.789Z,101611.63
2022-07-30T06:05:09.155Z,101616.19
2022-07-30T06:07:36.590Z,101614.25
2022-07-30T06:10:06.727Z,101614.75
2022-07-30T06:12:34.126Z,101617.59
2022-07-30T06:15:01.404Z,101624.44
2022-07-30T06:17:28.840Z,101620.44
2022-07-30T06:19:56.342Z,101624.03
2022-07-30T06:22:26.164Z,101621.56
2022-07-30T06:24:53.699Z,101622.38
2022-07-30T06:27:22.442Z,101632.47
2022-07-30T06:29:49.787Z,101636.69
2022-07-30T06:32:17.512Z,101635.03
2022-07-30T06:34:44.819Z,101643.69
2022-07-30T06:37:12.206Z,101645.31
2022-07-30T06:39:57.402Z,101650.25
2022-07-30T06:42:27.376Z,101652.44
2022-07-30T06:44:54.649Z,101652.06
2022-07-30T06:47:32.123Z,101642.06
2022-07-30T06:50:02.925Z,101644.47
2022-07-30T06:52:30.297Z,101649.50
2022-07-30T06:54:57.628Z,101644.78
2022-07-30T06:57:26.464Z,101641.16
2022-07-30T06:59:57.296Z,101635.72
2022-07-30T07:02:25.135Z,101637.69
2022-07-30T07:04:52.413Z,101640.38
2022-07-30T07:07:37.109Z,101643.78
2022-07-30T07:10:09.030Z,101643.94
2022-07-30T07:12:37.953Z,101650.28
2022-07-30T07:15:06.963Z,101648.63
2022-07-30T07:17:34.328Z,101649.94
2022-07-30T07:20:02.749Z,101648.16
2022-07-30T07:22:30.790Z,101644.03
2022-07-30T07:24:58.149Z,101639.97
2022-07-30T07:27:25.636Z,101646.97
2022-07-30T07:30:04.976Z,101638.00
2022-07-30T07:32:33.758Z,101636.56
2022-07-30T07:35:01.369Z,101641.00
2022-07-30T07:37:28.898Z,101642.25
2022-07-30T07:39:56.259Z,101639.75
2022-07-30T07:42:23.649Z,101642.63
2022-07-30T07:44:51.052Z,101642.72
2022-07-30T07:47:19.721Z,101636.31
2022-07-30T07:49:47.050Z,101631.19
2022-07-30T07:52:14.459Z,101628.25
2022-07-30T07:54:41.840Z,101631.97
2022-07-30T07:57:12.843Z,101626.00
2022-07-30T07:59:42.692Z,101634.66
2022-07-30T08:02:10.120Z,101627.41
2022-07-30T08:04:39.302Z,101626.09
2022-07-30T08:07:06.928Z,101632.03
2022-07-30T08:09:44.052Z,101630.22
2022-07-30T08:12:12.574Z,101618.31
2022-07-30T08:14:40.046Z,101624.28
2022-07-30T08:17:08.193Z,101618.63
2022-07-30T08:19:36.165Z,101624.34
2022-07-30T08:22:05.348Z,101620.53
2022-07-30T08:24:32.835Z,101623.00
2022-07-30T08:27:00.726Z,101621.09
2022-07-30T08:29:29.811Z,101622.75
2022-07-30T08:31:57.265Z,101616.53
2022-07-30T08:34:25.821Z,101622.00
2022-07-30T08:36:53.373Z,101619.59
2022-07-30T08:39:22.232Z,101626.09
2022-07-30T08:41:50.252Z,101620.41
2022-07-30T08:44:19.351Z,101619.31
2022-07-30T08:46:48.193Z,101621.47
2022-07-30T08:49:16.565Z,101618.63
2022-07-30T08:51:44.629Z,101627.16
2022-07-30T08:54:12.549Z,101626.00
2022-07-30T08:56:41.722Z,101631.22
2022-07-30T08:59:09.374Z,101633.94
2022-07-30T09:01:36.925Z,101637.63
2022-07-30T09:06:32.999Z,101640.88
2022-07-30T09:09:01.097Z,101637.47
2022-07-30T09:11:28.954Z,101640.19
2022-07-30T09:14:10.265Z,101639.06
2022-07-30T09:16:38.425Z,101640.72
2022-07-30T09:19:15.899Z,101642.16
2022-07-30T09:21:54.605Z,101644.25
2022-07-30T09:24:22.096Z,101640.97
2022-07-30T09:26:57.061Z,101639.25
2022-07-30T09:29:28.426Z,101635.28
2022-07-30T09:31:57.781Z,101643.34
2022-07-30T09:34:28.477Z,101640.19
2022-07-30T09:36:58.734Z,101642.44
2022-07-30T09:39:33.994Z,101640.78
2022-07-30T09:42:02.528Z,101640.84
2022-07-30T09:44:31.998Z,101645.66
2022-07-30T09:47:01.287Z,101639.66
2022-07-30T09:49:29.813Z,101642.88
2022-07-30T09:51:57.777Z,101641.94
2022-07-30T09:54:26.756Z,101639.84
2022-07-30T09:57:25.536Z,101632.53
2022-07-30T09:59:57.455Z,101632.72
2022-07-30T10:02:32.395Z,101631.06
2022-07-30T10:05:14.196Z,101632.97
2022-07-30T10:07:51.022Z,101633.72
2022-07-30T10:10:21.822Z,101637.56
2022-07-30T10:12:58.291Z,101644.63
2022-07-30T10:15:32.363Z,101638.16
2022-07-30T10:18:02.660Z,101639.81
2022-07-30T10:20:35.115Z,101638.56
2022-07-30T10:23:08.079Z,101635.09
2022-07-30T10:25:54.792Z,101626.75
2022-07-30T10:28:24.438Z,101627.09
2022-07-30T10:30:57.076Z,101628.38
2022-07-30T10:33:34.770Z,101629.16
2022-07-30T10:36:05.555Z,101629.22
2022-07-30T10:38:39.508Z,101635.19
2022-07-30T10:41:42.639Z,101639.31
2022-07-30T10:44:35.596Z,101636.44
2022-07-30T10:47:09.257Z,101635.66
2022-07-30T10:49:41.544Z,101643.72
2022-07-30T10:52:12.059Z,101640.31
2022-07-30T10:54:44.527Z,101632.88
2022-07-30T10:57:31.788Z,101631.78
2022-07-30T11:00:15.501Z,101640.66
2022-07-30T11:03:18.620Z,101633.22
2022-07-30T11:05:48.926Z,101632.91
2022-07-30T11:08:42.815Z,101636.59
2022-07-30T11:12:05.602Z,101635.38
2022-07-30T11:15:06.583Z,101632.09
2022-07-30T11:18:03.063Z,101633.28
2022-07-30T11:20:34.002Z,101629.63
2022-07-30T11:23:35.914Z,101630.16
2022-07-30T11:26:03.647Z,101622.78
2022-07-30T11:28:42.271Z,101630.38
2022-07-30T11:31:55.115Z,101625.03
2022-07-30T11:34:28.439Z,101619.94
2022-07-30T11:37:22.334Z,101619.22
2022-07-30T11:40:13.286Z,101620.63
2022-07-30T11:42:42.562Z,101617.44
2022-07-30T11:45:27.212Z,101621.13
2022-07-30T11:47:58.154Z,101617.25
2022-07-30T11:50:29.653Z,101616.44
2022-07-30T11:53:00.433Z,101616.22
2022-07-30T11:55:33.211Z,101606.19
2022-07-30T11:58:03.642Z,101612.16
2022-07-30T12:00:38.525Z,101611.16
2022-07-30T12:03:14.631Z,101609.25
2022-07-30T12:05:43.625Z,101612.03
2022-07-30T12:08:34.071Z,101614.75
2022-07-30T12:11:01.972Z,101611.44
2022-07-30T12:13:43.969Z,101611.28
2022-07-30T12:16:18.277Z,101613.84
2022-07-30T12:18:46.737Z,101618.44
2022-07-30T12:21:16.280Z,101615.81
2022-07-30T12:23:55.819Z,101618.66
2022-07-30T12:26:26.644Z,101617.66
2022-07-30T12:28:56.070Z,101626.53
2022-07-30T12:31:23.839Z,101621.28
2022-07-30T12:33:51.260Z,101615.44
2022-07-30T12:36:30.741Z,101615.03
2022-07-30T12:39:01.401Z,101613.53
2022-07-30T12:41:45.526Z,101619.31
2022-07-30T12:44:39.152Z,101615.41
2022-07-30T12:47:20.087Z,101615.31
2022-07-30T12:49:50.209Z,101618.13
2022-07-30T12:52:28.648Z,101603.59
2022-07-30T12:55:12.277Z,101616.00
2022-07-30T12:57:56.855Z,101601.44
2022-07-30T13:00:26.688Z,101609.13
2022-07-30T13:02:55.550Z,101607.25
2022-07-30T13:05:47.362Z,101605.78
2022-07-30T13:08:15.120Z,101604.13
2022-07-30T13:10:59.666Z,101605.19
2022-07-30T13:13:27.618Z,101607.84
2022-07-30T13:16:00.040Z,101604.63
2022-07-30T13:18:29.193Z,101602.97
2022-07-30T13:20:56.810Z,101600.88
2022-07-30T13:23:25.037Z,101601.47
2022-07-30T13:25:52.544Z,101609.22
2022-07-30T13:28:21.797Z,101605.56
2022-07-30T13:30:49.790Z,101604.91
2022-07-30T13:33:17.341Z,101597.13
2022-07-30T13:35:44.683Z,101592.25
2022-07-30T13:38:13.546Z,101597.75
2022-07-30T13:40:41.894Z,101607.63
2022-07-30T13:43:09.794Z,101597.88
2022-07-30T13:45:38.515Z,101594.22
2022-07-30T13:48:06.525Z,101600.03
2022-07-30T13:50:34.015Z,101598.19
2022-07-30T13:53:02.542Z,101596.56
2022-07-30T13:55:30.674Z,101595.25
2022-07-30T13:57:58.100Z,101597.69
2022-07-30T14:00:27.404Z,101600.91
2022-07-30T14:02:56.085Z,101601.22
2022-07-30T14:05:23.864Z,101598.13
2022-07-30T14:07:51.316Z,101592.00
2022-07-30T14:10:22.139Z,101596.56
2022-07-30T14:12:50.219Z,101594.66
2022-07-30T14:15:18.046Z,101600.72
2022-07-30T14:17:56.251Z,101596.94
2022-07-30T14:20:29.018Z,101596.56
2022-07-30T14:22:57.391Z,101601.06
2022-07-30T14:25:25.312Z,101599.28
2022-07-30T14:27:52.732Z,101593.94
2022-07-30T14:30:20.300Z,101586.66
2022-07-30T14:32:48.190Z,101596.44
2022-07-30T14:35:15.626Z,101593.16
2022-07-30T14:37:44.318Z,101588.47
2022-07-30T14:40:13.185Z,101591.16
2022-07-30T14:42:40.809Z,101585.28
2022-07-30T14:45:10.094Z,101580.66
2022-07-30T14:47:38.095Z,101578.75
2022-07-30T14:50:07.384Z,101577.44
2022-07-30T14:52:35.108Z,101577.09
2022-07-30T14:55:06.636Z,101575.13
2022-07-30T14:57:34.595Z,101567.06
2022-07-30T15:00:03.124Z,101568.91
2022-07-30T15:02:30.493Z,101569.44
2022-07-30T15:04:57.898Z,101572.56
2022-07-30T15:07:25.328Z,101576.22
2022-07-30T15:09:52.843Z,101571.94
2022-07-30T15:12:26.868Z,101568.63
2022-07-30T15:14:54.721Z,101566.34
2022-07-30T15:17:22.916Z,101574.13
2022-07-30T15:19:51.445Z,101577.75
2022-07-30T15:22:19.458Z,101583.81
2022-07-30T15:24:47.055Z,101569.31
2022-07-30T15:27:14.458Z,101570.69
2022-07-30T15:29:43.144Z,101571.31
2022-07-30T15:32:10.633Z,101567.84
2022-07-30T15:34:38.054Z,101566.63
2022-07-30T15:37:05.717Z,101562.38
2022-07-30T15:39:33.653Z,101564.69
2022-07-30T15:42:02.222Z,101560.91
2022-07-30T15:44:30.185Z,101557.38
2022-07-30T15:46:59.178Z,101557.91
2022-07-30T15:49:27.995Z,101565.78
2022-07-30T15:51:55.999Z,101561.72
2022-07-30T15:54:24.829Z,101564.75
2022-07-30T15:56:54.608Z,101562.03
2022-07-30T15:59:29.048Z,101558.81
2022-07-30T16:01:58.000Z,101563.72
2022-07-30T16:04:31.221Z,101561.59
2022-07-30T16:07:00.273Z,101561.38
2022-07-30T16:09:28.364Z,101566.09
2022-07-30T16:11:56.178Z,101559.16
2022-07-30T16:14:23.643Z,101560.13
2022-07-30T16:16:52.662Z,101563.75
2022-07-30T16:19:21.589Z,101564.31
2022-07-30T16:21:48.927Z,101565.88
2022-07-30T16:24:16.879Z,101565.31
2022-07-30T16:26:44.438Z,101568.28
2022-07-30T16:29:13.996Z,101568.53
2022-07-30T16:31:41.795Z,101572.03
2022-07-30T16:34:09.139Z,101570.34
2022-07-30T16:36:37.848Z,101568.13
2022-07-30T16:39:05.687Z,101566.09
2022-07-30T16:41:33.348Z,101565.09
2022-07-30T16:44:00.848Z,101566.91
2022-07-30T16:46:28.551Z,101562.25
2022-07-30T16:48:56.074Z,101569.81
2022-07-30T16:51:23.445Z,101575.13
2022-07-30T16:53:52.221Z,101572.47
2022-07-30T16:56:19.583Z,101596.91
2022-07-30T16:58:46.876Z,101595.91
2022-07-30T17:01:14.494Z,101599.59
2022-07-30T17:03:41.988Z,101607.06
2022-07-30T17:06:09.350Z,101609.09
2022-07-30T17:08:36.772Z,101610.53
2022-07-30T17:11:08.736Z,101621.09
2022-07-30T17:13:37.569Z,101626.47
2022-07-30T17:16:07.126Z,101635.03
2022-07-30T17:18:34.670Z,101642.22
2022-07-30T17:21:02.264Z,101646.44
2022-07-30T17:23:30.218Z,101646.75
2022-07-30T17:25:57.632Z,101661.44
2022-07-30T17:28:27.039Z,101663.69
2022-07-30T17:30:54.847Z,101665.09
2022-07-30T17:33:22.144Z,101668.63
2022-07-30T17:35:49.595Z,101676.22
2022-07-30T17:38:17.172Z,101681.66
2022-07-30T17:40:44.637Z,101677.34
2022-07-30T17:43:13.956Z,101682.25
2022-07-30T17:45:43.374Z,101678.44
2022-07-30T17:48:10.876Z,101679.25
2022-07-30T17:50:38.239Z,101679.50
2022-07-30T17:53:06.201Z,101675.97
2022-07-30T17:55:36.826Z,101680.03
2022-07-30T17:58:04.967Z,101673.78
2022-07-30T18:00:34.718Z,101681.63
2022-07-30T18:03:03.952Z,101683.53
2022-07-30T18:05:31.306Z,101678.66
2022-07-30T18:07:58.696Z,101685.41
2022-07-30T18:10:26.197Z,101694.34
2022-07-30T18:12:53.572Z,101693.22
2022-07-30T18:15:21.107Z,101695.13
2022-07-30T18:17:49.007Z,101697.81
2022-07-30T18:20:18.478Z,101691.63
2022-07-30T18:22:45.938Z,101688.34
2022-07-30T18:25:19.528Z,101695.09
2022-07-30T18:27:47.555Z,101691.81
2022-07-30T18:30:15.413Z,101693.97
2022-07-30T18:32:42.780Z,101699.94
2022-07-30T18:35:14.426Z,101700.47
2022-07-30T18:37:44.993Z,101705.34
2022-07-30T18:40:15.452Z,101701.25
2022-07-30T18:42:43.870Z,101696.09
2022-07-30T18:45:14.100Z,101700.97
2022-07-30T18:47:42.319Z,101700.16
2022-07-30T18:50:10.887Z,101701.50
2022-07-30T18:52:38.544Z,101708.78
2022-07-30T18:55:11.307Z,101705.22
2022-07-30T18:57:38.975Z,101715.78
2022-07-30T19:00:10.643Z,101710.06
2022-07-30T19:02:58.142Z,101711.13
2022-07-30T19:05:25.987Z,101709.47
2022-07-30T19:07:57.482Z,101711.63
2022-07-30T19:10:27.726Z,101709.72
2022-07-30T19:12:55.730Z,101708.31
2022-07-30T19:15:23.566Z,101718.59
2022-07-30T19:17:51.725Z,101719.09
2022-07-30T19:20:19.674Z,101714.75
2022-07-30T19:22:47.206Z,101717.97
2022-07-30T19:25:15.513Z,101721.47
2022-07-30T19:27:44.469Z,101725.50
2022-07-30T19:30:12.923Z,101737.34
2022-07-30T19:32:40.459Z,101737.31
2022-07-30T19:35:10.268Z,101744.28
2022-07-30T19:37:41.950Z,101741.03
2022-07-30T19:40:12.758Z,101743.19
2022-07-30T19:42:41.203Z,101751.25
2022-07-30T19:45:12.147Z,101756.63
2022-07-30T19:47:42.258Z,101751.16
2022-07-30T19:50:11.107Z,101758.72
2022-07-30T19:52:39.242Z,101762.50
2022-07-30T19:55:18.405Z,101760.88
2022-07-30T19:57:54.840Z,101771.03
2022-07-30T20:00:25.385Z,101766.41
2022-07-30T20:02:53.321Z,101768.78
2022-07-30T20:05:20.771Z,101766.06
2022-07-30T20:07:52.702Z,101769.25
2022-07-30T20:10:20.097Z,101778.69
2022-07-30T20:12:49.643Z,101782.16
2022-07-30T20:15:17.991Z,101779.97
2022-07-30T20:17:46.826Z,101776.13
2022-07-30T20:20:15.269Z,101783.69
2022-07-30T20:22:42.912Z,101782.53
2022-07-30T20:25:11.098Z,101781.41
2022-07-30T20:27:43.074Z,101790.50
2022-07-30T20:30:12.174Z,101795.88
2022-07-30T20:32:43.513Z,101800.13
2022-07-30T20:35:15.362Z,101797.34
2022-07-30T20:37:54.999Z,101797.84
2022-07-30T20:40:26.743Z,101805.88
2022-07-30T20:42:54.908Z,101803.13
2022-07-30T20:45:24.824Z,101809.50
2022-07-30T20:47:56.030Z,101809.47
2022-07-30T20:50:30.436Z,101806.91
2022-07-30T20:52:59.501Z,101821.16
2022-07-30T20:55:27.871Z,101815.69
2022-07-30T20:58:07.888Z,101809.41
2022-07-30T21:00:41.993Z,101810.16
2022-07-30T21:03:18.045Z,101813.34
2022-07-30T21:05:51.216Z,101808.91
2022-07-30T21:08:25.185Z,101809.44
2022-07-30T21:10:53.435Z,101809.31
2022-07-30T21:13:25.018Z,101803.84
2022-07-30T21:16:02.857Z,101798.13
2022-07-30T21:18:32.849Z,101813.97
2022-07-30T21:21:05.640Z,101799.13
2022-07-30T21:23:34.011Z,101803.13
2022-07-30T21:26:05.922Z,101805.81
2022-07-30T21:28:37.915Z,101802.53
2022-07-30T21:31:07.177Z,101807.94
2022-07-30T21:33:36.133Z,101807.94
2022-07-30T21:36:10.192Z,101803.59
2022-07-30T21:38:38.852Z,101789.31
2022-07-30T21:41:14.378Z,101779.34
2022-07-30T21:43:43.863Z,101786.38
2022-07-30T21:46:12.172Z,101791.84
2022-07-30T21:48:40.984Z,101794.63
2022-07-30T21:51:10.817Z,101801.16
2022-07-30T21:53:46.086Z,101790.94
2022-07-30T21:56:15.808Z,101796.31
2022-07-30T21:58:44.496Z,101795.28
2022-07-30T22:01:17.163Z,101797.47
2022-07-30T22:06:39.260Z,101796.53
2022-07-30T22:09:19.132Z,101799.78
2022-07-30T22:11:56.902Z,101797.00
2022-07-30T22:14:29.040Z,101793.72
2022-07-30T22:16:56.672Z,101790.78
2022-07-30T22:19:25.859Z,101793.25
2022-07-30T22:21:55.072Z,101791.59
2022-07-30T22:24:28.788Z,101796.53
2022-07-30T22:26:59.985Z,101786.03
2022-07-30T22:29:34.037Z,101790.13
2022-07-30T22:32:04.109Z,101791.75
2022-07-30T22:34:32.168Z,101788.00
2022-07-30T22:37:00.957Z,101789.06
2022-07-30T22:39:31.528Z,101783.13
2022-07-30T22:42:01.227Z,101777.72
2022-07-30T22:44:29.018Z,101788.50
2022-07-30T22:46:56.659Z,101783.34
2022-07-30T22:49:35.649Z,101781.94
2022-07-30T22:52:19.900Z,101779.19
2022-07-30T22:54:59.643Z,101769.63
2022-07-30T22:57:37.823Z,101770.59
2022-07-30T23:00:11.698Z,101768.91
2022-07-30T23:02:39.819Z,101763.16
2022-07-30T23:05:08.939Z,101762.03
2022-07-30T23:07:39.740Z,101758.78
2022-07-30T23:10:17.207Z,101755.50
2022-07-30T23:12:28.190Z,101798.66
2022-07-30T23:12:48.116Z,101756.00
2022-07-30T23:15:15.759Z,101751.09
2022-07-30T23:17:44.005Z,101741.88
2022-07-30T23:20:15.217Z,101748.31
2022-07-30T23:22:44.230Z,101739.66
2022-07-30T23:25:12.781Z,101738.03
2022-07-30T23:27:41.518Z,101742.59
2022-07-30T23:30:11.404Z,101743.91
2022-07-30T23:32:40.513Z,101742.25
2022-07-30T23:35:10.277Z,101736.88
2022-07-30T23:37:48.351Z,101742.50
2022-07-30T23:40:18.927Z,101737.38
2022-07-30T23:42:47.625Z,101729.31
2022-07-30T23:45:15.301Z,101728.47
2022-07-30T23:48:00.602Z,101733.88
2022-07-30T23:50:31.735Z,101740.31
2022-07-30T23:52:59.398Z,101740.31
2022-07-30T23:55:29.533Z,101733.03
2022-07-30T23:57:57.926Z,101732.22
